sensor_id;sensor_type;location;lat;lon;timestamp;P1;durP1;ratioP1;P2;durP2;ratioP2
7587;SDS011;3835;48.850;8.938;2022-07-24T00:01:43;15.17;;;14.40;;
7587;SDS011;3835;48.850;8.938;2022-07-24T00:04:10;15.07;;;14.27;;
7587;SDS011;3835;48.850;8.938;2022-07-24T00:06:37;14.67;;;13.90;;
7587;SDS011;3835;48.850;8.938;2022-07-24T00:09:04;14.23;;;13.53;;
7587;SDS011;3835;48.850;8.938;2022-07-24T00:11:31;13.50;;;12.83;;
7587;SDS011;3835;48.850;8.938;2022-07-24T00:13:58;14.03;;;13.30;;
7587;SDS011;3835;48.850;8.938;2022-07-24T00:16:28;14.13;;;13.43;;
7587;SDS011;3835;48.850;8.938;2022-07-24T00:18:55;13.53;;;12.93;;
7587;SDS011;3835;48.850;8.938;2022-07-24T00:21:22;13.80;;;13.20;;
7587;SDS011;3835;48.850;8.938;2022-07-24T00:23:49;15.00;;;14.30;;
7587;SDS011;3835;48.850;8.938;2022-07-24T00:26:15;17.20;;;16.20;;
7587;SDS011;3835;48.850;8.938;2022-07-24T00:28:42;16.53;;;15.73;;
7587;SDS011;3835;48.850;8.938;2022-07-24T00:31:09;13.00;;;12.30;;
7587;SDS011;3835;48.850;8.938;2022-07-24T00:33:38;17.60;;;16.70;;
7587;SDS011;3835;48.850;8.938;2022-07-24T00:36:05;13.30;;;12.50;;
7587;SDS011;3835;48.850;8.938;2022-07-24T00:38:32;15.20;;;14.50;;
7587;SDS011;3835;48.850;8.938;2022-07-24T00:40:59;17.33;;;16.33;;
7587;SDS011;3835;48.850;8.938;2022-07-24T00:43:26;18.60;;;17.57;;
7587;SDS011;3835;48.850;8.938;2022-07-24T00:45:53;14.33;;;13.67;;
7587;SDS011;3835;48.850;8.938;2022-07-24T00:48:20;14.50;;;13.70;;
7587;SDS011;3835;48.850;8.938;2022-07-24T00:50:48;12.77;;;11.87;;
7587;SDS011;3835;48.850;8.938;2022-07-24T00:53:15;15.23;;;14.27;;
7587;SDS011;3835;48.850;8.938;2022-07-24T00:55:42;16.93;;;16.13;;
7587;SDS011;3835;48.850;8.938;2022-07-24T00:58:09;14.83;;;14.13;;
7587;SDS011;3835;48.850;8.938;2022-07-24T01:00:37;15.40;;;14.60;;
7587;SDS011;3835;48.850;8.938;2022-07-24T01:03:04;15.93;;;15.13;;
7587;SDS011;3835;48.850;8.938;2022-07-24T01:05:31;17.20;;;16.43;;
7587;SDS011;3835;48.850;8.938;2022-07-24T01:08:00;18.63;;;17.83;;
7587;SDS011;3835;48.850;8.938;2022-07-24T01:10:27;20.27;;;19.33;;
7587;SDS011;3835;48.850;8.938;2022-07-24T01:12:54;19.90;;;18.77;;
7587;SDS011;3835;48.850;8.938;2022-07-24T01:15:22;17.60;;;16.80;;
7587;SDS011;3835;48.850;8.938;2022-07-24T01:17:48;15.33;;;14.43;;
7587;SDS011;3835;48.850;8.938;2022-07-24T01:20:15;12.73;;;12.07;;
7587;SDS011;3835;48.850;8.938;2022-07-24T01:22:43;13.17;;;12.50;;
7587;SDS011;3835;48.850;8.938;2022-07-24T01:25:10;15.50;;;14.77;;
7587;SDS011;3835;48.850;8.938;2022-07-24T01:27:37;15.00;;;14.20;;
7587;SDS011;3835;48.850;8.938;2022-07-24T01:30:04;18.17;;;17.17;;
7587;SDS011;3835;48.850;8.938;2022-07-24T01:32:32;16.00;;;15.27;;
7587;SDS011;3835;48.850;8.938;2022-07-24T01:34:58;23.93;;;22.73;;
7587;SDS011;3835;48.850;8.938;2022-07-24T01:37:25;18.80;;;17.90;;
7587;SDS011;3835;48.850;8.938;2022-07-24T01:39:54;22.87;;;21.87;;
7587;SDS011;3835;48.850;8.938;2022-07-24T01:42:20;15.30;;;14.47;;
7587;SDS011;3835;48.850;8.938;2022-07-24T01:44:50;17.60;;;16.53;;
7587;SDS011;3835;48.850;8.938;2022-07-24T01:47:17;15.53;;;14.80;;
7587;SDS011;3835;48.850;8.938;2022-07-24T01:49:44;16.43;;;15.63;;
7587;SDS011;3835;48.850;8.938;2022-07-24T01:52:11;18.97;;;18.00;;
7587;SDS011;3835;48.850;8.938;2022-07-24T01:54:38;15.07;;;14.37;;
7587;SDS011;3835;48.850;8.938;2022-07-24T01:57:06;16.70;;;15.80;;
7587;SDS011;3835;48.850;8.938;2022-07-24T01:59:33;18.07;;;17.10;;
7587;SDS011;3835;48.850;8.938;2022-07-24T02:02:00;29.63;;;28.30;;
7587;SDS011;3835;48.850;8.938;2022-07-24T02:04:26;20.37;;;19.47;;
7587;SDS011;3835;48.850;8.938;2022-07-24T02:06:53;26.77;;;25.47;;
7587;SDS011;3835;48.850;8.938;2022-07-24T02:09:20;16.73;;;15.77;;
7587;SDS011;3835;48.850;8.938;2022-07-24T02:11:47;13.47;;;12.77;;
7587;SDS011;3835;48.850;8.938;2022-07-24T02:14:15;19.57;;;18.60;;
7587;SDS011;3835;48.850;8.938;2022-07-24T02:16:42;21.07;;;20.07;;
7587;SDS011;3835;48.850;8.938;2022-07-24T02:19:09;25.30;;;24.20;;
7587;SDS011;3835;48.850;8.938;2022-07-24T02:21:35;17.10;;;16.23;;
7587;SDS011;3835;48.850;8.938;2022-07-24T02:24:02;21.10;;;20.10;;
7587;SDS011;3835;48.850;8.938;2022-07-24T02:26:30;19.53;;;18.67;;
7587;SDS011;3835;48.850;8.938;2022-07-24T02:28:57;15.17;;;14.37;;
7587;SDS011;3835;48.850;8.938;2022-07-24T02:31:25;17.70;;;16.80;;
7587;SDS011;3835;48.850;8.938;2022-07-24T02:33:52;21.97;;;20.97;;
7587;SDS011;3835;48.850;8.938;2022-07-24T02:36:19;14.63;;;13.77;;
7587;SDS011;3835;48.850;8.938;2022-07-24T02:38:45;21.93;;;20.90;;
7587;SDS011;3835;48.850;8.938;2022-07-24T02:41:12;15.77;;;14.77;;
7587;SDS011;3835;48.850;8.938;2022-07-24T02:43:39;15.57;;;14.87;;
7587;SDS011;3835;48.850;8.938;2022-07-24T02:46:06;28.87;;;27.53;;
7587;SDS011;3835;48.850;8.938;2022-07-24T02:48:34;21.47;;;20.37;;
7587;SDS011;3835;48.850;8.938;2022-07-24T02:51:01;33.70;;;32.20;;
7587;SDS011;3835;48.850;8.938;2022-07-24T02:53:28;23.60;;;22.37;;
7587;SDS011;3835;48.850;8.938;2022-07-24T02:55:55;19.97;;;18.97;;
7587;SDS011;3835;48.850;8.938;2022-07-24T02:58:23;18.03;;;17.13;;
7587;SDS011;3835;48.850;8.938;2022-07-24T03:00:50;14.70;;;14.00;;
7587;SDS011;3835;48.850;8.938;2022-07-24T03:03:17;16.33;;;15.47;;
7587;SDS011;3835;48.850;8.938;2022-07-24T03:05:45;19.37;;;18.30;;
7587;SDS011;3835;48.850;8.938;2022-07-24T03:08:12;16.27;;;15.47;;
7587;SDS011;3835;48.850;8.938;2022-07-24T03:10:39;16.13;;;15.30;;
7587;SDS011;3835;48.850;8.938;2022-07-24T03:13:06;16.23;;;15.03;;
7587;SDS011;3835;48.850;8.938;2022-07-24T03:15:33;15.07;;;14.27;;
7587;SDS011;3835;48.850;8.938;2022-07-24T03:18:00;27.07;;;25.47;;
7587;SDS011;3835;48.850;8.938;2022-07-24T03:20:27;30.33;;;29.00;;
7587;SDS011;3835;48.850;8.938;2022-07-24T03:22:56;19.50;;;18.60;;
7587;SDS011;3835;48.850;8.938;2022-07-24T03:25:23;26.03;;;24.83;;
7587;SDS011;3835;48.850;8.938;2022-07-24T03:27:50;35.63;;;34.07;;
7587;SDS011;3835;48.850;8.938;2022-07-24T03:30:17;24.33;;;23.23;;
7587;SDS011;3835;48.850;8.938;2022-07-24T03:32:45;21.67;;;20.67;;
7587;SDS011;3835;48.850;8.938;2022-07-24T03:35:12;24.33;;;23.23;;
7587;SDS011;3835;48.850;8.938;2022-07-24T03:37:39;20.80;;;19.90;;
7587;SDS011;3835;48.850;8.938;2022-07-24T03:40:08;18.23;;;17.43;;
7587;SDS011;3835;48.850;8.938;2022-07-24T03:42:35;19.43;;;18.53;;
7587;SDS011;3835;48.850;8.938;2022-07-24T03:45:03;16.47;;;15.77;;
7587;SDS011;3835;48.850;8.938;2022-07-24T03:47:30;14.57;;;13.77;;
7587;SDS011;3835;48.850;8.938;2022-07-24T03:49:57;13.43;;;12.63;;
7587;SDS011;3835;48.850;8.938;2022-07-24T03:52:24;17.10;;;16.30;;
7587;SDS011;3835;48.850;8.938;2022-07-24T03:54:51;15.73;;;15.03;;
7587;SDS011;3835;48.850;8.938;2022-07-24T03:57:21;14.03;;;13.33;;
7587;SDS011;3835;48.850;8.938;2022-07-24T03:59:48;13.90;;;13.27;;
7587;SDS011;3835;48.850;8.938;2022-07-24T04:02:15;14.73;;;13.73;;
7587;SDS011;3835;48.850;8.938;2022-07-24T04:04:42;13.07;;;12.40;;
7587;SDS011;3835;48.850;8.938;2022-07-24T04:07:08;14.87;;;14.00;;
7587;SDS011;3835;48.850;8.938;2022-07-24T04:09:35;16.37;;;15.57;;
7587;SDS011;3835;48.850;8.938;2022-07-24T04:12:02;14.70;;;13.80;;
7587;SDS011;3835;48.850;8.938;2022-07-24T04:14:31;13.07;;;12.43;;
7587;SDS011;3835;48.850;8.938;2022-07-24T04:16:58;13.30;;;12.57;;
7587;SDS011;3835;48.850;8.938;2022-07-24T04:19:24;15.77;;;14.87;;
7587;SDS011;3835;48.850;8.938;2022-07-24T04:21:51;18.13;;;17.23;;
7587;SDS011;3835;48.850;8.938;2022-07-24T04:24:18;18.60;;;17.60;;
7587;SDS011;3835;48.850;8.938;2022-07-24T04:26:45;16.23;;;15.33;;
7587;SDS011;3835;48.850;8.938;2022-07-24T04:29:12;26.70;;;25.37;;
7587;SDS011;3835;48.850;8.938;2022-07-24T04:31:40;29.03;;;27.87;;
7587;SDS011;3835;48.850;8.938;2022-07-24T04:34:07;18.50;;;17.50;;
7587;SDS011;3835;48.850;8.938;2022-07-24T04:36:34;14.17;;;13.47;;
7587;SDS011;3835;48.850;8.938;2022-07-24T04:39:00;25.97;;;24.77;;
7587;SDS011;3835;48.850;8.938;2022-07-24T04:41:27;15.37;;;14.67;;
7587;SDS011;3835;48.850;8.938;2022-07-24T04:43:54;16.67;;;15.87;;
7587;SDS011;3835;48.850;8.938;2022-07-24T04:46:21;16.53;;;15.70;;
7587;SDS011;3835;48.850;8.938;2022-07-24T04:48:49;16.20;;;15.30;;
7587;SDS011;3835;48.850;8.938;2022-07-24T04:51:16;36.53;;;34.87;;
7587;SDS011;3835;48.850;8.938;2022-07-24T04:53:43;15.93;;;15.20;;
7587;SDS011;3835;48.850;8.938;2022-07-24T04:56:11;25.30;;;24.00;;
7587;SDS011;3835;48.850;8.938;2022-07-24T04:58:38;18.03;;;17.17;;
7587;SDS011;3835;48.850;8.938;2022-07-24T05:01:05;14.20;;;13.30;;
7587;SDS011;3835;48.850;8.938;2022-07-24T05:03:32;20.40;;;19.30;;
7587;SDS011;3835;48.850;8.938;2022-07-24T05:06:01;15.87;;;15.07;;
7587;SDS011;3835;48.850;8.938;2022-07-24T05:08:27;18.87;;;17.87;;
7587;SDS011;3835;48.850;8.938;2022-07-24T05:10:54;14.20;;;13.40;;
7587;SDS011;3835;48.850;8.938;2022-07-24T05:13:21;13.33;;;12.57;;
7587;SDS011;3835;48.850;8.938;2022-07-24T05:15:48;15.73;;;14.87;;
7587;SDS011;3835;48.850;8.938;2022-07-24T05:18:15;13.27;;;12.57;;
7587;SDS011;3835;48.850;8.938;2022-07-24T05:20:41;14.97;;;14.17;;
7587;SDS011;3835;48.850;8.938;2022-07-24T05:23:10;18.67;;;17.63;;
7587;SDS011;3835;48.850;8.938;2022-07-24T05:25:36;14.07;;;13.27;;
7587;SDS011;3835;48.850;8.938;2022-07-24T05:28:04;22.23;;;21.27;;
7587;SDS011;3835;48.850;8.938;2022-07-24T05:30:31;16.73;;;15.80;;
7587;SDS011;3835;48.850;8.938;2022-07-24T05:32:57;15.17;;;14.37;;
7587;SDS011;3835;48.850;8.938;2022-07-24T05:35:24;15.63;;;14.93;;
7587;SDS011;3835;48.850;8.938;2022-07-24T05:37:51;17.70;;;16.80;;
7587;SDS011;3835;48.850;8.938;2022-07-24T05:40:19;13.90;;;13.20;;
7587;SDS011;3835;48.850;8.938;2022-07-24T05:42:46;19.30;;;18.37;;
7587;SDS011;3835;48.850;8.938;2022-07-24T05:45:13;15.43;;;14.60;;
7587;SDS011;3835;48.850;8.938;2022-07-24T05:47:40;13.43;;;12.77;;
7587;SDS011;3835;48.850;8.938;2022-07-24T05:50:08;12.80;;;12.20;;
7587;SDS011;3835;48.850;8.938;2022-07-24T05:52:36;12.43;;;11.67;;
7587;SDS011;3835;48.850;8.938;2022-07-24T05:55:03;15.50;;;14.70;;
7587;SDS011;3835;48.850;8.938;2022-07-24T05:57:32;13.17;;;12.47;;
7587;SDS011;3835;48.850;8.938;2022-07-24T05:59:59;13.53;;;12.93;;
7587;SDS011;3835;48.850;8.938;2022-07-24T06:02:26;14.80;;;14.00;;
7587;SDS011;3835;48.850;8.938;2022-07-24T06:04:53;12.17;;;11.57;;
7587;SDS011;3835;48.850;8.938;2022-07-24T06:07:20;13.60;;;12.87;;
7587;SDS011;3835;48.850;8.938;2022-07-24T06:09:46;12.87;;;12.27;;
7587;SDS011;3835;48.850;8.938;2022-07-24T06:12:13;14.13;;;13.47;;
7587;SDS011;3835;48.850;8.938;2022-07-24T06:14:41;12.10;;;11.50;;
7587;SDS011;3835;48.850;8.938;2022-07-24T06:17:08;15.20;;;14.40;;
7587;SDS011;3835;48.850;8.938;2022-07-24T06:19:35;14.37;;;13.67;;
7587;SDS011;3835;48.850;8.938;2022-07-24T06:22:02;13.07;;;12.47;;
7587;SDS011;3835;48.850;8.938;2022-07-24T06:24:29;13.47;;;12.77;;
7587;SDS011;3835;48.850;8.938;2022-07-24T06:26:56;12.50;;;11.90;;
7587;SDS011;3835;48.850;8.938;2022-07-24T06:29:23;13.03;;;12.43;;
7587;SDS011;3835;48.850;8.938;2022-07-24T06:31:51;13.70;;;12.90;;
7587;SDS011;3835;48.850;8.938;2022-07-24T06:34:18;13.30;;;12.70;;
7587;SDS011;3835;48.850;8.938;2022-07-24T06:36:48;13.13;;;12.43;;
7587;SDS011;3835;48.850;8.938;2022-07-24T06:39:15;12.03;;;11.43;;
7587;SDS011;3835;48.850;8.938;2022-07-24T06:41:42;12.33;;;11.63;;
7587;SDS011;3835;48.850;8.938;2022-07-24T06:44:09;13.30;;;12.47;;
7587;SDS011;3835;48.850;8.938;2022-07-24T06:46:36;12.67;;;12.03;;
7587;SDS011;3835;48.850;8.938;2022-07-24T06:49:04;12.63;;;11.93;;
7587;SDS011;3835;48.850;8.938;2022-07-24T06:51:31;11.20;;;10.60;;
7587;SDS011;3835;48.850;8.938;2022-07-24T06:53:58;13.40;;;12.80;;
7587;SDS011;3835;48.850;8.938;2022-07-24T06:56:24;14.20;;;13.53;;
7587;SDS011;3835;48.850;8.938;2022-07-24T06:58:51;15.90;;;15.17;;
7587;SDS011;3835;48.850;8.938;2022-07-24T07:01:18;12.93;;;12.33;;
7587;SDS011;3835;48.850;8.938;2022-07-24T07:03:45;12.13;;;11.53;;
7587;SDS011;3835;48.850;8.938;2022-07-24T07:06:13;12.10;;;11.50;;
7587;SDS011;3835;48.850;8.938;2022-07-24T07:08:40;14.40;;;13.53;;
7587;SDS011;3835;48.850;8.938;2022-07-24T07:11:06;12.37;;;11.67;;
7587;SDS011;3835;48.850;8.938;2022-07-24T07:13:33;16.33;;;15.53;;
7587;SDS011;3835;48.850;8.938;2022-07-24T07:16:00;13.47;;;12.77;;
7587;SDS011;3835;48.850;8.938;2022-07-24T07:18:27;11.70;;;11.10;;
7587;SDS011;3835;48.850;8.938;2022-07-24T07:20:54;13.63;;;12.93;;
7587;SDS011;3835;48.850;8.938;2022-07-24T07:23:23;13.73;;;13.03;;
7587;SDS011;3835;48.850;8.938;2022-07-24T07:25:51;13.57;;;12.87;;
7587;SDS011;3835;48.850;8.938;2022-07-24T07:28:19;12.90;;;12.30;;
7587;SDS011;3835;48.850;8.938;2022-07-24T07:30:46;14.17;;;13.47;;
7587;SDS011;3835;48.850;8.938;2022-07-24T07:33:13;12.37;;;11.67;;
7587;SDS011;3835;48.850;8.938;2022-07-24T07:35:40;12.40;;;11.70;;
7587;SDS011;3835;48.850;8.938;2022-07-24T07:38:06;12.90;;;12.20;;
7587;SDS011;3835;48.850;8.938;2022-07-24T07:40:35;12.13;;;11.53;;
7587;SDS011;3835;48.850;8.938;2022-07-24T07:43:01;10.67;;;10.10;;
7587;SDS011;3835;48.850;8.938;2022-07-24T07:45:28;11.97;;;11.27;;
7587;SDS011;3835;48.850;8.938;2022-07-24T07:47:55;11.47;;;10.77;;
7587;SDS011;3835;48.850;8.938;2022-07-24T07:50:22;12.60;;;11.93;;
7587;SDS011;3835;48.850;8.938;2022-07-24T07:52:49;13.47;;;12.83;;
7587;SDS011;3835;48.850;8.938;2022-07-24T07:55:15;14.00;;;13.30;;
7587;SDS011;3835;48.850;8.938;2022-07-24T07:57:44;11.60;;;10.90;;
7587;SDS011;3835;48.850;8.938;2022-07-24T08:00:11;12.57;;;11.87;;
7587;SDS011;3835;48.850;8.938;2022-07-24T08:02:38;12.13;;;11.53;;
7587;SDS011;3835;48.850;8.938;2022-07-24T08:05:05;11.93;;;11.23;;
7587;SDS011;3835;48.850;8.938;2022-07-24T08:07:33;12.30;;;11.63;;
7587;SDS011;3835;48.850;8.938;2022-07-24T08:10:00;12.33;;;11.63;;
7587;SDS011;3835;48.850;8.938;2022-07-24T08:12:27;11.63;;;11.03;;
7587;SDS011;3835;48.850;8.938;2022-07-24T08:14:55;13.03;;;12.43;;
7587;SDS011;3835;48.850;8.938;2022-07-24T08:17:22;13.20;;;12.60;;
7587;SDS011;3835;48.850;8.938;2022-07-24T08:19:49;14.40;;;13.60;;
7587;SDS011;3835;48.850;8.938;2022-07-24T08:22:16;11.37;;;10.87;;
7587;SDS011;3835;48.850;8.938;2022-07-24T08:24:42;13.97;;;13.27;;
7587;SDS011;3835;48.850;8.938;2022-07-24T08:27:09;12.10;;;11.40;;
7587;SDS011;3835;48.850;8.938;2022-07-24T08:29:36;11.73;;;11.20;;
7587;SDS011;3835;48.850;8.938;2022-07-24T08:32:04;13.90;;;13.30;;
7587;SDS011;3835;48.850;8.938;2022-07-24T08:34:31;13.40;;;12.70;;
7587;SDS011;3835;48.850;8.938;2022-07-24T08:36:58;14.53;;;13.83;;
7587;SDS011;3835;48.850;8.938;2022-07-24T08:39:25;11.43;;;10.83;;
7587;SDS011;3835;48.850;8.938;2022-07-24T08:41:52;12.13;;;11.43;;
7587;SDS011;3835;48.850;8.938;2022-07-24T08:44:18;11.87;;;11.27;;
7587;SDS011;3835;48.850;8.938;2022-07-24T08:46:45;12.27;;;11.60;;
7587;SDS011;3835;48.850;8.938;2022-07-24T08:49:14;11.60;;;10.67;;
7587;SDS011;3835;48.850;8.938;2022-07-24T08:51:42;12.20;;;11.60;;
7587;SDS011;3835;48.850;8.938;2022-07-24T08:54:10;12.20;;;11.50;;
7587;SDS011;3835;48.850;8.938;2022-07-24T08:56:38;13.63;;;12.93;;
7587;SDS011;3835;48.850;8.938;2022-07-24T08:59:08;11.83;;;11.13;;
7587;SDS011;3835;48.850;8.938;2022-07-24T09:01:42;12.70;;;12.10;;
7587;SDS011;3835;48.850;8.938;2022-07-24T09:07:02;13.10;;;12.37;;
7587;SDS011;3835;48.850;8.938;2022-07-24T09:09:30;11.93;;;11.33;;
7587;SDS011;3835;48.850;8.938;2022-07-24T09:12:07;11.63;;;11.03;;
7587;SDS011;3835;48.850;8.938;2022-07-24T09:14:35;10.83;;;10.23;;
7587;SDS011;3835;48.850;8.938;2022-07-24T09:17:04;10.80;;;10.30;;
7587;SDS011;3835;48.850;8.938;2022-07-24T09:19:42;11.50;;;10.90;;
7587;SDS011;3835;48.850;8.938;2022-07-24T09:22:16;11.40;;;10.80;;
7587;SDS011;3835;48.850;8.938;2022-07-24T09:24:52;16.70;;;15.83;;
7587;SDS011;3835;48.850;8.938;2022-07-24T09:27:37;13.50;;;12.80;;
7587;SDS011;3835;48.850;8.938;2022-07-24T09:30:07;11.17;;;10.67;;
7587;SDS011;3835;48.850;8.938;2022-07-24T09:32:35;12.50;;;11.60;;
7587;SDS011;3835;48.850;8.938;2022-07-24T09:35:04;11.57;;;10.97;;
7587;SDS011;3835;48.850;8.938;2022-07-24T09:37:32;12.27;;;11.67;;
7587;SDS011;3835;48.850;8.938;2022-07-24T09:40:09;11.50;;;10.80;;
7587;SDS011;3835;48.850;8.938;2022-07-24T09:42:36;12.93;;;12.23;;
7587;SDS011;3835;48.850;8.938;2022-07-24T09:45:07;11.27;;;10.67;;
7587;SDS011;3835;48.850;8.938;2022-07-24T09:47:37;11.03;;;10.53;;
7587;SDS011;3835;48.850;8.938;2022-07-24T09:50:12;10.93;;;10.40;;
7587;SDS011;3835;48.850;8.938;2022-07-24T09:52:40;11.20;;;10.70;;
7587;SDS011;3835;48.850;8.938;2022-07-24T09:55:21;12.07;;;11.27;;
7587;SDS011;3835;48.850;8.938;2022-07-24T09:57:50;12.23;;;11.57;;
7587;SDS011;3835;48.850;8.938;2022-07-24T10:00:18;11.77;;;11.27;;
7587;SDS011;3835;48.850;8.938;2022-07-24T10:02:46;11.90;;;11.30;;
7587;SDS011;3835;48.850;8.938;2022-07-24T10:05:16;10.67;;;10.07;;
7587;SDS011;3835;48.850;8.938;2022-07-24T10:07:44;10.57;;;10.07;;
7587;SDS011;3835;48.850;8.938;2022-07-24T10:10:14;11.13;;;10.53;;
7587;SDS011;3835;48.850;8.938;2022-07-24T10:12:41;11.17;;;10.60;;
7587;SDS011;3835;48.850;8.938;2022-07-24T10:15:12;10.73;;;10.13;;
7587;SDS011;3835;48.850;8.938;2022-07-24T10:18:00;12.10;;;11.40;;
7587;SDS011;3835;48.850;8.938;2022-07-24T10:20:42;11.10;;;10.60;;
7587;SDS011;3835;48.850;8.938;2022-07-24T10:23:16;10.90;;;10.20;;
7587;SDS011;3835;48.850;8.938;2022-07-24T10:25:54;13.23;;;12.63;;
7587;SDS011;3835;48.850;8.938;2022-07-24T10:28:34;12.10;;;11.50;;
7587;SDS011;3835;48.850;8.938;2022-07-24T10:31:09;11.40;;;10.83;;
7587;SDS011;3835;48.850;8.938;2022-07-24T10:33:38;10.90;;;10.30;;
7587;SDS011;3835;48.850;8.938;2022-07-24T10:36:12;10.40;;;9.80;;
7587;SDS011;3835;48.850;8.938;2022-07-24T10:38:43;10.40;;;9.93;;
7587;SDS011;3835;48.850;8.938;2022-07-24T10:41:21;12.33;;;11.73;;
7587;SDS011;3835;48.850;8.938;2022-07-24T10:46:58;12.27;;;11.57;;
7587;SDS011;3835;48.850;8.938;2022-07-24T10:49:33;11.00;;;10.40;;
7587;SDS011;3835;48.850;8.938;2022-07-24T10:52:09;11.87;;;11.10;;
7587;SDS011;3835;48.850;8.938;2022-07-24T10:54:37;10.50;;;9.90;;
7587;SDS011;3835;48.850;8.938;2022-07-24T10:57:04;11.63;;;11.13;;
7587;SDS011;3835;48.850;8.938;2022-07-24T10:59:32;10.77;;;10.27;;
7587;SDS011;3835;48.850;8.938;2022-07-24T11:11:06;12.00;;;11.40;;
7587;SDS011;3835;48.850;8.938;2022-07-24T11:13:48;10.97;;;10.47;;
7587;SDS011;3835;48.850;8.938;2022-07-24T11:16:26;11.60;;;11.00;;
7587;SDS011;3835;48.850;8.938;2022-07-24T11:24:41;11.57;;;10.87;;
7587;SDS011;3835;48.850;8.938;2022-07-24T11:27:30;12.03;;;11.53;;
7587;SDS011;3835;48.850;8.938;2022-07-24T11:30:18;11.27;;;10.73;;
7587;SDS011;3835;48.850;8.938;2022-07-24T11:32:46;11.13;;;10.53;;
7587;SDS011;3835;48.850;8.938;2022-07-24T11:35:13;10.90;;;10.30;;
7587;SDS011;3835;48.850;8.938;2022-07-24T11:37:40;11.17;;;10.67;;
7587;SDS011;3835;48.850;8.938;2022-07-24T11:40:09;11.60;;;11.00;;
7587;SDS011;3835;48.850;8.938;2022-07-24T11:42:41;11.37;;;10.77;;
7587;SDS011;3835;48.850;8.938;2022-07-24T11:45:09;11.13;;;10.57;;
7587;SDS011;3835;48.850;8.938;2022-07-24T11:47:36;11.27;;;10.67;;
7587;SDS011;3835;48.850;8.938;2022-07-24T11:50:03;11.87;;;11.17;;
7587;SDS011;3835;48.850;8.938;2022-07-24T11:52:32;12.47;;;11.87;;
7587;SDS011;3835;48.850;8.938;2022-07-24T11:55:02;10.87;;;10.37;;
7587;SDS011;3835;48.850;8.938;2022-07-24T11:57:31;10.97;;;10.37;;
7587;SDS011;3835;48.850;8.938;2022-07-24T12:00:00;11.10;;;10.47;;
7587;SDS011;3835;48.850;8.938;2022-07-24T12:02:29;11.83;;;11.23;;
7587;SDS011;3835;48.850;8.938;2022-07-24T12:04:56;11.57;;;11.07;;
7587;SDS011;3835;48.850;8.938;2022-07-24T12:07:23;11.37;;;10.77;;
7587;SDS011;3835;48.850;8.938;2022-07-24T12:09:53;11.17;;;10.57;;
7587;SDS011;3835;48.850;8.938;2022-07-24T12:12:22;11.87;;;11.27;;
7587;SDS011;3835;48.850;8.938;2022-07-24T12:14:52;10.53;;;10.03;;
7587;SDS011;3835;48.850;8.938;2022-07-24T12:17:21;12.00;;;11.40;;
7587;SDS011;3835;48.850;8.938;2022-07-24T12:19:51;12.53;;;11.83;;
7587;SDS011;3835;48.850;8.938;2022-07-24T12:22:20;11.07;;;10.47;;
7587;SDS011;3835;48.850;8.938;2022-07-24T12:24:47;10.57;;;10.07;;
7587;SDS011;3835;48.850;8.938;2022-07-24T12:30:18;10.63;;;10.13;;
7587;SDS011;3835;48.850;8.938;2022-07-24T12:32:53;12.27;;;11.57;;
7587;SDS011;3835;48.850;8.938;2022-07-24T12:35:24;12.70;;;11.93;;
7587;SDS011;3835;48.850;8.938;2022-07-24T12:37:52;11.03;;;10.53;;
7587;SDS011;3835;48.850;8.938;2022-07-24T12:40:27;11.83;;;11.07;;
7587;SDS011;3835;48.850;8.938;2022-07-24T12:43:00;10.60;;;10.03;;
7587;SDS011;3835;48.850;8.938;2022-07-24T12:45:29;11.97;;;11.33;;
7587;SDS011;3835;48.850;8.938;2022-07-24T12:48:11;10.57;;;10.07;;
7587;SDS011;3835;48.850;8.938;2022-07-24T12:51:00;11.50;;;10.80;;
7587;SDS011;3835;48.850;8.938;2022-07-24T12:53:30;10.40;;;9.90;;
7587;SDS011;3835;48.850;8.938;2022-07-24T12:56:00;11.10;;;10.60;;
7587;SDS011;3835;48.850;8.938;2022-07-24T13:01:13;11.03;;;10.43;;
7587;SDS011;3835;48.850;8.938;2022-07-24T13:03:41;10.97;;;10.47;;
7587;SDS011;3835;48.850;8.938;2022-07-24T13:06:09;11.13;;;10.53;;
7587;SDS011;3835;48.850;8.938;2022-07-24T13:08:36;10.40;;;9.90;;
7587;SDS011;3835;48.850;8.938;2022-07-24T13:11:03;11.40;;;10.80;;
7587;SDS011;3835;48.850;8.938;2022-07-24T13:13:29;11.43;;;10.77;;
7587;SDS011;3835;48.850;8.938;2022-07-24T13:15:56;10.47;;;9.97;;
7587;SDS011;3835;48.850;8.938;2022-07-24T13:18:23;10.83;;;10.23;;
7587;SDS011;3835;48.850;8.938;2022-07-24T13:20:51;11.37;;;10.77;;
7587;SDS011;3835;48.850;8.938;2022-07-24T13:23:18;11.47;;;10.87;;
7587;SDS011;3835;48.850;8.938;2022-07-24T13:25:44;10.90;;;10.30;;
7587;SDS011;3835;48.850;8.938;2022-07-24T13:28:12;11.87;;;11.17;;
7587;SDS011;3835;48.850;8.938;2022-07-24T13:30:39;13.47;;;12.70;;
7587;SDS011;3835;48.850;8.938;2022-07-24T13:33:06;11.23;;;10.63;;
7587;SDS011;3835;48.850;8.938;2022-07-24T13:35:34;11.40;;;10.80;;
7587;SDS011;3835;48.850;8.938;2022-07-24T13:38:02;10.53;;;10.03;;
7587;SDS011;3835;48.850;8.938;2022-07-24T13:40:29;10.90;;;10.30;;
7587;SDS011;3835;48.850;8.938;2022-07-24T13:42:56;10.80;;;10.30;;
7587;SDS011;3835;48.850;8.938;2022-07-24T13:45:23;10.97;;;10.27;;
7587;SDS011;3835;48.850;8.938;2022-07-24T13:47:50;10.70;;;10.20;;
7587;SDS011;3835;48.850;8.938;2022-07-24T13:50:16;11.20;;;10.70;;
7587;SDS011;3835;48.850;8.938;2022-07-24T13:52:43;11.17;;;10.57;;
7587;SDS011;3835;48.850;8.938;2022-07-24T13:55:11;11.57;;;10.97;;
7587;SDS011;3835;48.850;8.938;2022-07-24T13:57:38;12.30;;;11.70;;
7587;SDS011;3835;48.850;8.938;2022-07-24T14:00:06;11.57;;;11.07;;
7587;SDS011;3835;48.850;8.938;2022-07-24T14:02:34;11.67;;;10.97;;
7587;SDS011;3835;48.850;8.938;2022-07-24T14:05:00;11.77;;;10.93;;
7587;SDS011;3835;48.850;8.938;2022-07-24T14:07:27;11.90;;;11.20;;
7587;SDS011;3835;48.850;8.938;2022-07-24T14:09:54;11.67;;;11.07;;
7587;SDS011;3835;48.850;8.938;2022-07-24T14:12:22;10.63;;;10.13;;
7587;SDS011;3835;48.850;8.938;2022-07-24T14:14:49;13.00;;;12.30;;
7587;SDS011;3835;48.850;8.938;2022-07-24T14:17:16;11.20;;;10.60;;
7587;SDS011;3835;48.850;8.938;2022-07-24T14:19:43;11.07;;;10.37;;
7587;SDS011;3835;48.850;8.938;2022-07-24T14:22:10;11.27;;;10.67;;
7587;SDS011;3835;48.850;8.938;2022-07-24T14:24:37;13.27;;;12.63;;
7587;SDS011;3835;48.850;8.938;2022-07-24T14:27:04;11.83;;;11.23;;
7587;SDS011;3835;48.850;8.938;2022-07-24T14:29:32;11.73;;;11.13;;
7587;SDS011;3835;48.850;8.938;2022-07-24T14:31:59;11.67;;;11.07;;
7587;SDS011;3835;48.850;8.938;2022-07-24T14:34:25;13.90;;;13.27;;
7587;SDS011;3835;48.850;8.938;2022-07-24T14:36:52;11.97;;;11.27;;
7587;SDS011;3835;48.850;8.938;2022-07-24T14:39:19;12.10;;;11.50;;
7587;SDS011;3835;48.850;8.938;2022-07-24T14:41:46;13.03;;;12.33;;
7587;SDS011;3835;48.850;8.938;2022-07-24T14:44:12;12.00;;;11.40;;
7587;SDS011;3835;48.850;8.938;2022-07-24T14:46:41;13.97;;;13.17;;
7587;SDS011;3835;48.850;8.938;2022-07-24T14:49:08;14.67;;;13.87;;
7587;SDS011;3835;48.850;8.938;2022-07-24T14:51:35;11.63;;;11.10;;
7587;SDS011;3835;48.850;8.938;2022-07-24T14:54:02;11.10;;;10.60;;
7587;SDS011;3835;48.850;8.938;2022-07-24T14:56:30;12.47;;;11.87;;
7587;SDS011;3835;48.850;8.938;2022-07-24T14:58:57;12.60;;;11.90;;
7587;SDS011;3835;48.850;8.938;2022-07-24T15:01:24;12.80;;;12.20;;
7587;SDS011;3835;48.850;8.938;2022-07-24T15:03:52;11.23;;;10.73;;
7587;SDS011;3835;48.850;8.938;2022-07-24T15:06:19;10.20;;;9.70;;
7587;SDS011;3835;48.850;8.938;2022-07-24T15:08:46;11.23;;;10.73;;
7587;SDS011;3835;48.850;8.938;2022-07-24T15:11:13;10.77;;;10.20;;
7587;SDS011;3835;48.850;8.938;2022-07-24T15:13:40;12.50;;;11.90;;
7587;SDS011;3835;48.850;8.938;2022-07-24T15:16:07;11.20;;;10.67;;
7587;SDS011;3835;48.850;8.938;2022-07-24T15:18:34;11.37;;;10.77;;
7587;SDS011;3835;48.850;8.938;2022-07-24T15:21:03;12.20;;;11.63;;